createdAt,value
2019-05-06T00:00:28.024Z,112.50
2019-05-06T00:01:27.924Z,225.00
2019-05-06T00:02:28.025Z,270.00
2019-05-06T00:03:27.959Z,270.00
2019-05-06T00:04:28.067Z,337.50
2019-05-06T00:05:27.929Z,337.50
2019-05-06T00:06:28.017Z,337.50
2019-05-06T00:07:27.972Z,0.00
2019-05-06T00:08:28.067Z,0.00
2019-05-06T00:09:27.952Z,90.00
2019-05-06T00:10:28.063Z,45.00
2019-05-06T00:11:27.993Z,45.00
2019-05-06T00:12:28.018Z,22.50
2019-05-06T00:13:28.024Z,22.50
2019-05-06T00:14:28.014Z,90.00
2019-05-06T00:15:28.060Z,45.00
2019-05-06T00:16:28.071Z,112.50
2019-05-06T00:17:28.069Z,22.50
2019-05-06T00:18:27.950Z,0.00
2019-05-06T00:19:27.999Z,22.50
2019-05-06T00:20:27.929Z,67.50
2019-05-06T00:21:28.049Z,45.00
2019-05-06T00:22:27.997Z,22.50
2019-05-06T00:23:28.017Z,22.50
2019-05-06T00:24:28.118Z,45.00
2019-05-06T00:25:28.053Z,22.50
2019-05-06T00:26:27.939Z,45.00
2019-05-06T00:27:28.002Z,45.00
2019-05-06T00:28:28.061Z,45.00
2019-05-06T00:29:28.004Z,112.50
2019-05-06T00:30:28.061Z,135.00
2019-05-06T00:31:27.995Z,90.00
2019-05-06T00:32:28.059Z,67.50
2019-05-06T00:33:27.993Z,67.50
2019-05-06T00:34:28.058Z,67.50
2019-05-06T00:35:28.076Z,45.00
2019-05-06T00:36:27.996Z,22.50
2019-05-06T00:37:28.069Z,22.50
2019-05-06T00:38:28.081Z,45.00
2019-05-06T00:39:28.085Z,45.00
2019-05-06T00:40:28.105Z,22.50
2019-05-06T00:41:28.048Z,22.50
2019-05-06T00:42:28.027Z,90.00
2019-05-06T00:43:28.083Z,22.50
2019-05-06T00:44:28.089Z,0.00
2019-05-06T00:45:28.099Z,0.00
2019-05-06T00:46:28.098Z,202.50
2019-05-06T00:47:28.029Z,315.00
2019-05-06T00:48:28.020Z,67.50
2019-05-06T00:49:28.111Z,22.50
2019-05-06T00:50:28.094Z,22.50
2019-05-06T00:51:28.094Z,67.50
2019-05-06T00:52:28.095Z,90.00
2019-05-06T00:53:28.097Z,135.00
2019-05-06T00:54:28.032Z,90.00
2019-05-06T00:55:28.034Z,45.00
2019-05-06T00:56:28.046Z,45.00
2019-05-06T00:57:28.101Z,45.00
2019-05-06T00:58:28.091Z,157.50
2019-05-06T00:59:28.093Z,67.50
2019-05-06T01:00:28.081Z,45.00
2019-05-06T01:01:29.748Z,45.00
2019-05-06T01:02:28.020Z,22.50
2019-05-06T01:03:28.035Z,112.50
2019-05-06T01:04:28.038Z,315.00
2019-05-06T01:05:28.040Z,202.50
2019-05-06T01:06:28.057Z,22.50
2019-05-06T01:07:28.088Z,315.00
2019-05-06T01:08:28.022Z,0.00
2019-05-06T01:09:28.089Z,0.00
2019-05-06T01:10:28.147Z,180.00
2019-05-06T01:11:28.027Z,22.50
2019-05-06T01:12:28.092Z,22.50
2019-05-06T01:13:28.025Z,45.00
2019-05-06T01:14:28.092Z,67.50
2019-05-06T01:15:28.093Z,45.00
2019-05-06T01:16:28.030Z,0.00
2019-05-06T01:17:28.103Z,22.50
2019-05-06T01:18:28.102Z,45.00
2019-05-06T01:19:28.114Z,292.50
2019-05-06T01:20:28.034Z,270.00
2019-05-06T01:21:28.051Z,225.00
2019-05-06T01:22:28.116Z,315.00
2019-05-06T01:23:28.107Z,90.00
2019-05-06T01:24:28.038Z,22.50
2019-05-06T01:25:28.036Z,22.50
2019-05-06T01:26:28.109Z,22.50
2019-05-06T01:27:28.009Z,180.00
2019-05-06T01:28:28.039Z,45.00
2019-05-06T01:29:28.101Z,22.50
2019-05-06T01:30:28.035Z,22.50
2019-05-06T01:31:39.820Z,22.50
2019-05-06T01:32:28.044Z,45.00
2019-05-06T01:33:28.118Z,112.50
2019-05-06T01:34:28.035Z,112.50
2019-05-06T01:35:28.035Z,90.00
2019-05-06T01:36:28.044Z,90.00
2019-05-06T01:37:28.063Z,45.00
2019-05-06T01:38:28.062Z,45.00
2019-05-06T01:39:28.053Z,45.00
2019-05-06T01:40:28.124Z,22.50
2019-05-06T01:41:28.124Z,112.50
2019-05-06T01:42:28.134Z,45.00
2019-05-06T01:43:28.133Z,45.00
2019-05-06T01:44:28.132Z,22.50
2019-05-06T01:45:28.058Z,67.50
2019-05-06T01:46:28.130Z,67.50
2019-05-06T01:47:28.067Z,67.50
2019-05-06T01:48:28.096Z,45.00
2019-05-06T01:49:28.111Z,67.50
2019-05-06T01:50:28.018Z,45.00
2019-05-06T01:51:28.084Z,45.00
2019-05-06T01:52:28.021Z,45.00
2019-05-06T01:53:28.019Z,45.00
2019-05-06T01:54:27.989Z,45.00
2019-05-06T01:55:28.115Z,22.50
2019-05-06T01:56:28.107Z,22.50
2019-05-06T01:57:28.084Z,22.50
2019-05-06T01:58:28.081Z,45.00
2019-05-06T01:59:28.073Z,45.00
2019-05-06T02:00:28.096Z,22.50
2019-05-06T02:01:28.067Z,45.00
2019-05-06T02:02:28.166Z,45.00
2019-05-06T02:03:28.065Z,45.00
2019-05-06T02:04:28.146Z,45.00
2019-05-06T02:05:28.156Z,45.00
2019-05-06T02:06:28.161Z,45.00
2019-05-06T02:07:28.143Z,45.00
2019-05-06T02:08:28.120Z,22.50
2019-05-06T02:09:28.118Z,22.50
2019-05-06T02:10:28.123Z,45.00
2019-05-06T02:11:28.088Z,22.50
2019-05-06T02:12:28.073Z,22.50
2019-05-06T02:13:28.017Z,22.50
2019-05-06T02:14:28.084Z,45.00
2019-05-06T02:15:28.124Z,22.50
2019-05-06T02:16:28.044Z,315.00
2019-05-06T02:17:28.081Z,45.00
2019-05-06T02:18:28.101Z,22.50
2019-05-06T02:19:28.176Z,135.00
2019-05-06T02:20:28.166Z,90.00
2019-05-06T02:21:28.166Z,45.00
2019-05-06T02:22:28.089Z,45.00
2019-05-06T02:23:28.046Z,22.50
2019-05-06T02:24:28.120Z,67.50
2019-05-06T02:25:28.119Z,22.50
2019-05-06T02:26:28.113Z,45.00
2019-05-06T02:27:28.181Z,45.00
2019-05-06T02:28:28.066Z,45.00
2019-05-06T02:29:28.089Z,67.50
2019-05-06T02:30:28.159Z,112.50
2019-05-06T02:31:28.175Z,112.50
2019-05-06T02:32:31.353Z,45.00
2019-05-06T02:33:28.186Z,45.00
2019-05-06T02:34:28.127Z,45.00
2019-05-06T02:35:28.096Z,45.00
2019-05-06T02:36:28.103Z,45.00
2019-05-06T02:37:28.127Z,22.50
2019-05-06T02:38:39.254Z,45.00
2019-05-06T02:39:28.095Z,22.50
2019-05-06T02:40:28.097Z,67.50
2019-05-06T02:41:28.090Z,22.50
2019-05-06T02:42:28.087Z,22.50
2019-05-06T02:43:28.109Z,22.50
2019-05-06T02:44:28.092Z,22.50
2019-05-06T02:45:28.090Z,22.50
2019-05-06T02:46:28.101Z,22.50
2019-05-06T02:47:28.085Z,22.50
2019-05-06T02:48:28.100Z,112.50
2019-05-06T02:49:28.130Z,270.00
2019-05-06T02:50:28.162Z,270.00
2019-05-06T02:51:28.107Z,247.50
2019-05-06T02:52:28.161Z,45.00
2019-05-06T02:53:28.113Z,22.50
2019-05-06T02:54:28.202Z,45.00
2019-05-06T02:55:32.279Z,22.50
2019-05-06T02:56:28.118Z,45.00
2019-05-06T02:57:28.128Z,90.00
2019-05-06T02:58:28.183Z,135.00
2019-05-06T02:59:28.193Z,225.00
2019-05-06T03:00:28.192Z,90.00
2019-05-06T03:01:28.189Z,135.00
2019-05-06T03:02:41.963Z,90.00
2019-05-06T03:03:28.200Z,90.00
2019-05-06T03:04:28.145Z,247.50
2019-05-06T03:05:28.191Z,270.00
2019-05-06T03:06:28.113Z,90.00
2019-05-06T03:07:28.189Z,67.50
2019-05-06T03:08:28.173Z,112.50
2019-05-06T03:09:28.113Z,112.50
2019-05-06T03:10:28.202Z,90.00
2019-05-06T03:11:28.109Z,157.50
2019-05-06T03:12:28.177Z,157.50
2019-05-06T03:13:28.184Z,157.50
2019-05-06T03:14:28.179Z,157.50
2019-05-06T03:15:28.107Z,135.00
2019-05-06T03:16:28.191Z,67.50
2019-05-06T03:17:28.111Z,45.00
2019-05-06T03:18:28.137Z,45.00
2019-05-06T03:19:28.201Z,67.50
2019-05-06T03:20:28.206Z,67.50
2019-05-06T03:21:28.155Z,45.00
2019-05-06T03:22:28.221Z,22.50
2019-05-06T03:23:28.106Z,22.50
2019-05-06T03:24:28.253Z,22.50
2019-05-06T03:25:28.170Z,22.50
2019-05-06T03:26:28.150Z,135.00
2019-05-06T03:27:28.215Z,157.50
2019-05-06T03:28:28.179Z,45.00
2019-05-06T03:29:28.185Z,67.50
2019-05-06T03:30:28.137Z,247.50
2019-05-06T03:31:28.106Z,202.50
2019-05-06T03:32:30.625Z,157.50
2019-05-06T03:33:46.828Z,135.00
2019-05-06T03:34:52.757Z,67.50
2019-05-06T03:35:48.217Z,67.50
2019-05-06T03:36:34.452Z,67.50
2019-05-06T03:37:28.132Z,157.50
2019-05-06T03:38:28.147Z,0.00
2019-05-06T03:39:28.226Z,67.50
2019-05-06T03:40:28.177Z,67.50
2019-05-06T03:41:28.148Z,45.00
2019-05-06T03:42:28.161Z,67.50
2019-05-06T03:43:28.178Z,270.00
2019-05-06T03:44:28.214Z,225.00
2019-05-06T03:45:28.142Z,315.00
2019-05-06T03:46:28.221Z,180.00
2019-05-06T03:47:28.217Z,22.50
2019-05-06T03:48:28.167Z,45.00
2019-05-06T03:49:28.227Z,45.00
2019-05-06T03:50:28.317Z,67.50
2019-05-06T03:51:28.230Z,90.00
2019-05-06T03:52:28.237Z,337.50
2019-05-06T03:53:28.171Z,90.00
2019-05-06T03:54:28.230Z,67.50
2019-05-06T03:55:28.230Z,90.00
2019-05-06T03:56:28.153Z,135.00
2019-05-06T03:57:28.233Z,112.50
2019-05-06T03:58:28.097Z,45.00
2019-05-06T03:59:28.151Z,45.00
2019-05-06T04:00:28.148Z,112.50
2019-05-06T04:01:28.215Z,112.50
2019-05-06T04:02:28.151Z,90.00
2019-05-06T04:03:42.756Z,90.00
2019-05-06T04:04:28.218Z,67.50
2019-05-06T04:05:28.219Z,112.50
2019-05-06T04:06:28.230Z,292.50
2019-05-06T04:07:28.155Z,225.00
2019-05-06T04:08:28.125Z,270.00
2019-05-06T04:09:28.125Z,247.50
2019-05-06T04:10:28.226Z,45.00
2019-05-06T04:11:28.211Z,22.50
2019-05-06T04:12:28.159Z,22.50
2019-05-06T04:13:28.191Z,22.50
2019-05-06T04:14:28.165Z,22.50
2019-05-06T04:15:28.214Z,22.50
2019-05-06T04:16:28.227Z,22.50
2019-05-06T04:17:28.220Z,202.50
2019-05-06T04:18:28.162Z,270.00
2019-05-06T04:19:28.219Z,180.00
2019-05-06T04:20:28.134Z,315.00
2019-05-06T04:21:28.189Z,315.00
2019-05-06T04:22:28.104Z,337.50
2019-05-06T04:23:28.106Z,225.00
2019-05-06T04:24:28.200Z,135.00
2019-05-06T04:25:28.226Z,270.00
2019-05-06T04:26:28.155Z,45.00
2019-05-06T04:27:28.143Z,225.00
2019-05-06T04:28:28.169Z,67.50
2019-05-06T04:29:28.177Z,22.50
2019-05-06T04:30:28.177Z,45.00
2019-05-06T04:31:28.141Z,45.00
2019-05-06T04:32:28.150Z,67.50
2019-05-06T04:33:28.129Z,45.00
2019-05-06T04:34:28.058Z,157.50
2019-05-06T04:35:28.060Z,135.00
2019-05-06T04:36:28.196Z,67.50
2019-05-06T04:37:28.306Z,0.00
2019-05-06T04:38:28.083Z,45.00
2019-05-06T04:39:28.108Z,135.00
2019-05-06T04:40:28.165Z,112.50
2019-05-06T04:41:28.111Z,22.50
2019-05-06T04:42:28.131Z,22.50
2019-05-06T04:43:28.125Z,90.00
2019-05-06T04:44:28.204Z,45.00
2019-05-06T04:45:28.177Z,22.50
2019-05-06T04:46:28.122Z,22.50
2019-05-06T04:47:28.192Z,22.50
2019-05-06T04:48:28.284Z,45.00
2019-05-06T04:49:28.169Z,45.00
2019-05-06T04:50:28.163Z,22.50
2019-05-06T04:51:28.327Z,45.00
2019-05-06T04:52:28.278Z,45.00
2019-05-06T04:53:28.253Z,22.50
2019-05-06T04:54:28.260Z,22.50
2019-05-06T04:55:28.162Z,45.00
2019-05-06T04:56:28.176Z,22.50
2019-05-06T04:57:28.248Z,22.50
2019-05-06T04:58:28.217Z,22.50
2019-05-06T04:59:28.202Z,22.50
2019-05-06T05:00:28.202Z,67.50
2019-05-06T05:01:28.270Z,202.50
2019-05-06T05:02:28.231Z,90.00
2019-05-06T05:03:28.198Z,45.00
2019-05-06T05:04:32.634Z,90.00
2019-05-06T05:05:28.277Z,67.50
2019-05-06T05:06:28.274Z,180.00
2019-05-06T05:07:28.202Z,292.50
2019-05-06T05:08:28.272Z,247.50
2019-05-06T05:09:28.278Z,315.00
2019-05-06T05:10:28.183Z,315.00
2019-05-06T05:11:28.205Z,247.50
2019-05-06T05:12:28.202Z,270.00
2019-05-06T05:13:28.210Z,292.50
2019-05-06T05:14:28.279Z,67.50
2019-05-06T05:15:28.293Z,67.50
2019-05-06T05:16:28.277Z,157.50
2019-05-06T05:17:28.249Z,202.50
2019-05-06T05:18:28.208Z,157.50
2019-05-06T05:19:28.425Z,157.50
2019-05-06T05:20:37.692Z,90.00
2019-05-06T05:21:28.218Z,90.00
2019-05-06T05:22:28.280Z,67.50
2019-05-06T05:23:28.280Z,180.00
2019-05-06T05:24:28.213Z,270.00
2019-05-06T05:25:28.225Z,247.50
2019-05-06T05:26:28.284Z,112.50
2019-05-06T05:27:28.281Z,135.00
2019-05-06T05:28:28.214Z,135.00
2019-05-06T05:29:28.307Z,157.50
2019-05-06T05:30:28.292Z,202.50
2019-05-06T05:31:28.223Z,157.50
2019-05-06T05:32:28.223Z,22.50
2019-05-06T05:33:28.288Z,180.00
2019-05-06T05:34:39.468Z,180.00
2019-05-06T05:35:28.290Z,157.50
2019-05-06T05:36:28.323Z,202.50
2019-05-06T05:37:28.229Z,90.00
2019-05-06T05:38:28.294Z,90.00
2019-05-06T05:39:28.189Z,112.50
2019-05-06T05:40:28.299Z,225.00
2019-05-06T05:41:28.225Z,180.00
2019-05-06T05:42:28.225Z,90.00
2019-05-06T05:43:28.294Z,45.00
2019-05-06T05:44:28.297Z,67.50
2019-05-06T05:45:28.295Z,67.50
2019-05-06T05:46:28.303Z,135.00
2019-05-06T05:47:28.229Z,45.00
2019-05-06T05:48:28.291Z,45.00
2019-05-06T05:49:28.219Z,135.00
2019-05-06T05:50:28.295Z,202.50
2019-05-06T05:51:28.214Z,202.50
2019-05-06T05:52:28.225Z,180.00
2019-05-06T05:53:28.217Z,112.50
2019-05-06T05:54:28.323Z,90.00
2019-05-06T05:55:28.220Z,90.00
2019-05-06T05:56:28.322Z,112.50
2019-05-06T05:57:28.300Z,90.00
2019-05-06T05:58:28.238Z,157.50
2019-05-06T05:59:28.308Z,180.00
2019-05-06T06:00:28.268Z,180.00
2019-05-06T06:01:28.310Z,157.50
2019-05-06T06:02:28.312Z,247.50
2019-05-06T06:03:28.319Z,112.50
2019-05-06T06:04:28.238Z,315.00
2019-05-06T06:05:28.295Z,202.50
2019-05-06T06:06:28.309Z,270.00
2019-05-06T06:07:28.266Z,225.00
2019-05-06T06:08:28.241Z,247.50
2019-05-06T06:09:28.305Z,247.50
2019-05-06T06:10:28.345Z,135.00
2019-05-06T06:11:28.305Z,67.50
2019-05-06T06:12:28.232Z,135.00
2019-05-06T06:13:28.308Z,270.00
2019-05-06T06:14:28.313Z,225.00
2019-05-06T06:15:28.234Z,112.50
2019-05-06T06:16:28.234Z,67.50
2019-05-06T06:17:28.240Z,112.50
2019-05-06T06:18:28.240Z,157.50
2019-05-06T06:19:28.249Z,225.00
2019-05-06T06:20:28.210Z,247.50
2019-05-06T06:21:28.436Z,180.00
2019-05-06T06:22:28.326Z,90.00
2019-05-06T06:23:28.258Z,90.00
2019-05-06T06:24:28.267Z,157.50
2019-05-06T06:25:28.290Z,157.50
2019-05-06T06:26:28.347Z,270.00
2019-05-06T06:27:28.328Z,292.50
2019-05-06T06:28:28.261Z,180.00
2019-05-06T06:29:28.207Z,157.50
2019-05-06T06:30:28.258Z,157.50
2019-05-06T06:31:28.299Z,180.00
2019-05-06T06:32:28.283Z,202.50
2019-05-06T06:33:28.246Z,270.00
2019-05-06T06:34:28.178Z,247.50
2019-05-06T06:35:28.256Z,202.50
2019-05-06T06:36:28.159Z,202.50
2019-05-06T06:37:28.206Z,135.00
2019-05-06T06:38:28.251Z,157.50
2019-05-06T06:39:28.334Z,180.00
2019-05-06T06:40:28.330Z,112.50
2019-05-06T06:41:28.277Z,157.50
2019-05-06T06:42:28.275Z,225.00
2019-05-06T06:43:28.226Z,225.00
2019-05-06T06:44:28.337Z,225.00
2019-05-06T06:45:28.328Z,270.00
2019-05-06T06:46:28.272Z,247.50
2019-05-06T06:47:28.338Z,247.50
2019-05-06T06:48:28.341Z,247.50
2019-05-06T06:49:28.271Z,247.50
2019-05-06T06:50:28.274Z,270.00
2019-05-06T06:51:28.281Z,247.50
2019-05-06T06:52:28.286Z,180.00
2019-05-06T06:53:28.344Z,180.00
2019-05-06T06:54:28.283Z,202.50
2019-05-06T06:55:28.348Z,225.00
2019-05-06T06:56:28.279Z,247.50
2019-05-06T06:57:31.218Z,225.00
2019-05-06T06:58:28.346Z,180.00
2019-05-06T06:59:28.338Z,180.00
2019-05-06T07:00:28.268Z,247.50
2019-05-06T07:01:28.267Z,225.00
2019-05-06T07:02:28.292Z,225.00
2019-05-06T07:03:28.343Z,225.00
2019-05-06T07:04:28.318Z,180.00
2019-05-06T07:05:28.682Z,157.50
2019-05-06T07:06:28.341Z,247.50
2019-05-06T07:07:40.384Z,180.00
2019-05-06T07:08:36.595Z,157.50
2019-05-06T07:09:29.783Z,270.00
2019-05-06T07:10:28.361Z,180.00
2019-05-06T07:11:28.295Z,270.00
2019-05-06T07:12:28.439Z,225.00
2019-05-06T07:13:28.307Z,225.00
2019-05-06T07:14:28.292Z,202.50
2019-05-06T07:15:28.391Z,225.00
2019-05-06T07:16:28.361Z,247.50
2019-05-06T07:17:28.293Z,247.50
2019-05-06T07:18:28.369Z,225.00
2019-05-06T07:19:28.291Z,225.00
2019-05-06T07:20:28.355Z,247.50
2019-05-06T07:21:28.428Z,202.50
2019-05-06T07:22:28.285Z,225.00
2019-05-06T07:23:28.304Z,202.50
2019-05-06T07:24:28.384Z,157.50
2019-05-06T07:25:28.250Z,202.50
2019-05-06T07:26:28.353Z,180.00
2019-05-06T07:27:28.357Z,202.50
2019-05-06T07:28:28.324Z,180.00
2019-05-06T07:29:28.377Z,225.00
2019-05-06T07:30:28.335Z,202.50
2019-05-06T07:31:28.369Z,202.50
2019-05-06T07:32:28.373Z,247.50
2019-05-06T07:33:28.313Z,270.00
2019-05-06T07:34:28.376Z,247.50
2019-05-06T07:35:38.502Z,225.00
2019-05-06T07:36:28.375Z,202.50
2019-05-06T07:37:28.375Z,270.00
2019-05-06T07:38:28.308Z,202.50
2019-05-06T07:39:28.310Z,225.00
2019-05-06T07:40:28.349Z,225.00
2019-05-06T07:41:28.235Z,225.00
2019-05-06T07:42:28.295Z,247.50
2019-05-06T07:43:28.279Z,247.50
2019-05-06T07:44:28.238Z,247.50
2019-05-06T07:45:28.239Z,270.00
2019-05-06T07:46:28.311Z,247.50
2019-05-06T07:47:28.331Z,247.50
2019-05-06T07:48:28.259Z,225.00
2019-05-06T07:49:28.390Z,180.00
2019-05-06T07:50:28.385Z,270.00
2019-05-06T07:51:28.321Z,292.50
2019-05-06T07:52:28.387Z,270.00
2019-05-06T07:53:28.322Z,270.00
2019-05-06T07:54:28.389Z,270.00
2019-05-06T07:55:28.327Z,225.00
2019-05-06T07:56:28.391Z,225.00
2019-05-06T07:57:28.395Z,202.50
2019-05-06T07:58:28.325Z,180.00
2019-05-06T07:59:28.380Z,202.50
2019-05-06T08:00:28.294Z,225.00
2019-05-06T08:01:28.328Z,247.50
2019-05-06T08:02:28.378Z,247.50
2019-05-06T08:03:28.329Z,247.50
2019-05-06T08:04:28.382Z,247.50
2019-05-06T08:05:28.323Z,247.50
2019-05-06T08:06:28.381Z,202.50
2019-05-06T08:07:28.287Z,202.50
2019-05-06T08:08:28.389Z,247.50
2019-05-06T08:09:28.334Z,225.00
2019-05-06T08:10:28.363Z,270.00
2019-05-06T08:11:28.405Z,247.50
2019-05-06T08:12:28.353Z,202.50
2019-05-06T08:13:28.345Z,225.00
2019-05-06T08:14:28.408Z,225.00
2019-05-06T08:15:28.337Z,270.00
2019-05-06T08:16:28.345Z,247.50
2019-05-06T08:17:28.466Z,247.50
2019-05-06T08:18:28.309Z,270.00
2019-05-06T08:19:28.312Z,270.00
2019-05-06T08:20:28.334Z,247.50
2019-05-06T08:21:28.400Z,180.00
2019-05-06T08:22:28.294Z,180.00
2019-05-06T08:23:28.330Z,247.50
2019-05-06T08:24:28.406Z,225.00
2019-05-06T08:25:28.403Z,225.00
2019-05-06T08:26:28.311Z,247.50
2019-05-06T08:27:28.314Z,270.00
2019-05-06T08:28:40.355Z,180.00
2019-05-06T08:29:28.428Z,202.50
2019-05-06T08:30:28.402Z,180.00
2019-05-06T08:31:28.441Z,202.50
2019-05-06T08:32:28.421Z,225.00
2019-05-06T08:33:28.392Z,247.50
2019-05-06T08:34:28.423Z,247.50
2019-05-06T08:35:28.430Z,180.00
2019-05-06T08:36:28.381Z,202.50
2019-05-06T08:37:28.358Z,202.50
2019-05-06T08:38:28.421Z,247.50
2019-05-06T08:39:28.357Z,270.00
2019-05-06T08:40:28.347Z,247.50
2019-05-06T08:41:28.327Z,247.50
2019-05-06T08:42:28.414Z,247.50
2019-05-06T08:43:28.343Z,270.00
2019-05-06T08:44:28.341Z,202.50
2019-05-06T08:45:28.373Z,202.50
2019-05-06T08:46:28.345Z,180.00
2019-05-06T08:47:28.353Z,157.50
2019-05-06T08:48:28.382Z,225.00
2019-05-06T08:49:28.328Z,202.50
2019-05-06T08:50:28.375Z,202.50
2019-05-06T08:51:28.411Z,180.00
2019-05-06T08:52:28.361Z,180.00
2019-05-06T08:53:28.363Z,202.50
2019-05-06T08:54:28.333Z,180.00
2019-05-06T08:55:28.403Z,225.00
2019-05-06T08:56:28.432Z,180.00
2019-05-06T08:57:28.418Z,247.50
2019-05-06T08:58:28.332Z,202.50
2019-05-06T08:59:28.371Z,247.50
2019-05-06T09:00:28.395Z,225.00
2019-05-06T09:01:28.442Z,270.00
2019-05-06T09:02:28.380Z,202.50
2019-05-06T09:03:28.451Z,270.00
2019-05-06T09:04:28.445Z,225.00
2019-05-06T09:05:28.440Z,180.00
2019-05-06T09:06:31.532Z,202.50
2019-05-06T09:07:28.455Z,247.50
2019-05-06T09:08:28.339Z,247.50
2019-05-06T09:09:28.436Z,270.00
2019-05-06T09:10:28.433Z,225.00
2019-05-06T09:11:28.395Z,225.00
2019-05-06T09:12:28.445Z,247.50
2019-05-06T09:13:28.353Z,225.00
2019-05-06T09:14:28.406Z,180.00
2019-05-06T09:15:28.372Z,180.00
2019-05-06T09:16:28.352Z,157.50
2019-05-06T09:17:28.442Z,202.50
2019-05-06T09:18:28.443Z,225.00
2019-05-06T09:19:28.331Z,270.00
2019-05-06T09:20:28.355Z,225.00
2019-05-06T09:21:28.433Z,270.00
2019-05-06T09:22:28.355Z,247.50
2019-05-06T09:23:28.389Z,225.00
2019-05-06T09:24:28.381Z,202.50
2019-05-06T09:25:28.358Z,225.00
2019-05-06T09:26:28.447Z,180.00
2019-05-06T09:27:28.374Z,180.00
2019-05-06T09:28:28.456Z,270.00
2019-05-06T09:29:28.397Z,247.50
2019-05-06T09:30:28.390Z,225.00
2019-05-06T09:31:28.461Z,247.50
2019-05-06T09:32:28.466Z,225.00
2019-05-06T09:33:28.477Z,180.00
2019-05-06T09:34:28.397Z,180.00
2019-05-06T09:35:28.463Z,180.00
2019-05-06T09:36:41.282Z,180.00
2019-05-06T09:37:28.487Z,202.50
2019-05-06T09:38:28.398Z,180.00
2019-05-06T09:39:28.481Z,247.50
2019-05-06T09:40:28.404Z,202.50
2019-05-06T09:41:28.401Z,202.50
2019-05-06T09:42:28.401Z,225.00
2019-05-06T09:43:28.399Z,247.50
2019-05-06T09:44:28.470Z,247.50
2019-05-06T09:45:28.476Z,225.00
2019-05-06T09:46:28.405Z,180.00
2019-05-06T09:47:28.406Z,180.00
2019-05-06T09:48:28.471Z,180.00
2019-05-06T09:49:28.472Z,247.50
2019-05-06T09:50:28.496Z,225.00
2019-05-06T09:51:28.482Z,157.50
2019-05-06T09:52:28.407Z,202.50
2019-05-06T09:53:28.481Z,225.00
2019-05-06T09:54:28.480Z,225.00
2019-05-06T09:55:28.413Z,180.00
2019-05-06T09:56:28.421Z,180.00
2019-05-06T09:57:28.480Z,247.50
2019-05-06T09:58:28.414Z,270.00
2019-05-06T09:59:28.451Z,270.00
2019-05-06T10:00:28.414Z,270.00
2019-05-06T10:01:28.426Z,292.50
2019-05-06T10:02:28.485Z,270.00
2019-05-06T10:03:28.511Z,270.00
2019-05-06T10:04:28.494Z,270.00
2019-05-06T10:05:28.417Z,270.00
2019-05-06T10:06:28.500Z,270.00
2019-05-06T10:07:28.429Z,292.50
2019-05-06T10:08:28.483Z,270.00
2019-05-06T10:09:28.427Z,247.50
2019-05-06T10:10:28.445Z,270.00
2019-05-06T10:11:28.423Z,292.50
2019-05-06T10:12:28.502Z,292.50
2019-05-06T10:13:28.491Z,292.50
2019-05-06T10:14:28.490Z,270.00
2019-05-06T10:15:28.494Z,270.00
2019-05-06T10:16:28.433Z,270.00
2019-05-06T10:17:28.439Z,270.00
2019-05-06T10:18:28.500Z,292.50
2019-05-06T10:19:28.424Z,270.00
2019-05-06T10:20:28.400Z,270.00
2019-05-06T10:21:28.358Z,270.00
2019-05-06T10:22:28.443Z,247.50
2019-05-06T10:23:28.457Z,270.00
2019-05-06T10:24:28.366Z,270.00
2019-05-06T10:25:28.476Z,270.00
2019-05-06T10:26:28.389Z,270.00
2019-05-06T10:27:28.445Z,270.00
2019-05-06T10:28:28.428Z,270.00
2019-05-06T10:29:28.482Z,270.00
2019-05-06T10:30:28.374Z,270.00
2019-05-06T10:31:28.486Z,292.50
2019-05-06T10:32:28.493Z,292.50
2019-05-06T10:33:28.399Z,270.00
2019-05-06T10:34:28.443Z,270.00
2019-05-06T10:35:29.652Z,270.00
2019-05-06T10:36:28.409Z,225.00
2019-05-06T10:37:28.408Z,180.00
2019-05-06T10:38:28.494Z,157.50
2019-05-06T10:39:28.427Z,202.50
2019-05-06T10:40:28.543Z,247.50
2019-05-06T10:41:28.465Z,247.50
2019-05-06T10:42:28.499Z,225.00
2019-05-06T10:43:28.434Z,247.50
2019-05-06T10:44:28.435Z,247.50
2019-05-06T10:45:28.513Z,270.00
2019-05-06T10:46:28.505Z,247.50
2019-05-06T10:47:28.418Z,270.00
2019-05-06T10:48:28.501Z,292.50
2019-05-06T10:49:28.464Z,225.00
2019-05-06T10:50:28.490Z,315.00
2019-05-06T10:51:28.376Z,202.50
2019-05-06T10:52:28.375Z,247.50
2019-05-06T10:53:28.472Z,292.50
2019-05-06T10:54:28.441Z,270.00
2019-05-06T10:55:28.497Z,270.00
2019-05-06T10:56:28.389Z,270.00
2019-05-06T10:57:28.438Z,247.50
2019-05-06T10:58:28.440Z,270.00
2019-05-06T10:59:28.459Z,270.00
2019-05-06T11:00:28.581Z,247.50
2019-05-06T11:01:28.539Z,247.50
2019-05-06T11:02:28.472Z,247.50
2019-05-06T11:03:28.461Z,202.50
2019-05-06T11:04:28.533Z,225.00
2019-05-06T11:05:28.465Z,247.50
2019-05-06T11:06:28.463Z,292.50
2019-05-06T11:07:32.133Z,247.50
2019-05-06T11:08:28.468Z,247.50
2019-05-06T11:09:28.453Z,247.50
2019-05-06T11:10:37.067Z,225.00
2019-05-06T11:11:36.939Z,247.50
2019-05-06T11:12:28.468Z,292.50
2019-05-06T11:13:28.490Z,270.00
2019-05-06T11:14:28.577Z,270.00
2019-05-06T11:15:28.422Z,270.00
2019-05-06T11:16:28.452Z,247.50
2019-05-06T11:17:28.533Z,270.00
2019-05-06T11:18:28.453Z,225.00
2019-05-06T11:19:28.524Z,270.00
2019-05-06T11:20:28.432Z,292.50
2019-05-06T11:21:28.464Z,270.00
2019-05-06T11:22:28.414Z,292.50
2019-05-06T11:23:28.436Z,292.50
2019-05-06T11:24:28.478Z,270.00
2019-05-06T11:25:28.530Z,270.00
2019-05-06T11:26:28.569Z,292.50
2019-05-06T11:27:32.017Z,292.50
2019-05-06T11:28:28.475Z,292.50
2019-05-06T11:29:28.538Z,247.50
2019-05-06T11:30:28.535Z,270.00
2019-05-06T11:31:28.669Z,292.50
2019-05-06T11:32:28.540Z,270.00
2019-05-06T11:33:28.490Z,292.50
2019-05-06T11:34:28.471Z,247.50
2019-05-06T11:35:28.542Z,247.50
2019-05-06T11:36:28.480Z,225.00
2019-05-06T11:37:42.380Z,225.00
2019-05-06T11:38:28.473Z,225.00
2019-05-06T11:39:28.567Z,202.50
2019-05-06T11:40:28.484Z,202.50
2019-05-06T11:41:28.557Z,225.00
2019-05-06T11:42:32.665Z,270.00
2019-05-06T11:43:28.562Z,247.50
2019-05-06T11:44:28.493Z,247.50
2019-05-06T11:45:28.561Z,270.00
2019-05-06T11:46:28.559Z,270.00
2019-05-06T11:47:28.569Z,270.00
2019-05-06T11:48:28.583Z,270.00
2019-05-06T11:49:28.571Z,270.00
2019-05-06T11:50:28.478Z,270.00
2019-05-06T11:51:28.466Z,270.00
2019-05-06T11:52:28.514Z,247.50
2019-05-06T11:53:28.418Z,247.50
2019-05-06T11:54:28.438Z,270.00
2019-05-06T11:55:32.699Z,292.50
2019-05-06T11:56:28.515Z,270.00
2019-05-06T11:57:28.512Z,247.50
2019-05-06T11:58:28.425Z,247.50
2019-05-06T11:59:28.547Z,292.50
2019-05-06T12:00:28.573Z,270.00
2019-05-06T12:01:28.530Z,270.00
2019-05-06T12:02:28.569Z,225.00
2019-05-06T12:03:28.584Z,270.00
2019-05-06T12:04:28.501Z,270.00
2019-05-06T12:05:28.506Z,225.00
2019-05-06T12:06:28.519Z,247.50
2019-05-06T12:07:28.509Z,270.00
2019-05-06T12:08:28.579Z,292.50
2019-05-06T12:09:28.529Z,247.50
2019-05-06T12:10:28.564Z,202.50
2019-05-06T12:11:28.578Z,247.50
2019-05-06T12:12:28.494Z,225.00
2019-05-06T12:13:28.482Z,225.00
2019-05-06T12:14:28.498Z,270.00
2019-05-06T12:15:28.576Z,247.50
2019-05-06T12:16:28.520Z,202.50
2019-05-06T12:17:28.574Z,202.50
2019-05-06T12:18:28.568Z,225.00
2019-05-06T12:19:28.500Z,225.00
2019-05-06T12:20:28.574Z,247.50
2019-05-06T12:21:28.572Z,202.50
2019-05-06T12:22:28.581Z,157.50
2019-05-06T12:23:28.483Z,180.00
2019-05-06T12:24:28.500Z,180.00
2019-05-06T12:25:28.511Z,180.00
2019-05-06T12:26:28.516Z,180.00
2019-05-06T12:27:28.540Z,225.00
2019-05-06T12:28:28.514Z,202.50
2019-05-06T12:29:28.581Z,202.50
2019-05-06T12:30:28.595Z,180.00
2019-05-06T12:31:28.693Z,180.00
2019-05-06T12:32:28.658Z,180.00
2019-05-06T12:33:28.608Z,180.00
2019-05-06T12:34:28.527Z,180.00
2019-05-06T12:35:28.598Z,180.00
2019-05-06T12:36:28.545Z,202.50